Main page


Airports :

Caracas, Venezuela

Simón Bolívar International Airport

latitude: 10-36N, longitude: 066-59W, elevation: 43 m

Current weather observation

The report was made 28 minutes ago, at 23:00 UTC
Wind 3 kt from the East
Temperature 28°C
Humidity 74%
Pressure 1011 hPa

METAR: SVMI 222300Z 09003KT 28/23 Q1011 METAR

Time: 19:28 (23:28 UTC)


The report was made 7 hours and 28 minutes ago, at 16:00 UTC
Forecast valid from 22 at 18 UTC to 23 at 18 UTC
Wind 8 kt from the Northeast
Visibility 10 km or more
Broken clouds at a height of 1600 ft
from 22 at 20 UTC to 23 at 00 UTC
Wind 8 kt from variable directions
Visibility: 9000 m
From 23 at 0100 UTC
Wind kt from the North
Visibility 10 km or more
Scattered clouds at a height of 1600 ft

TAF: SVMI 221600Z 2218/2318 05008KT 9999 BKN016 TX33/18Z TN25/08Z TEMPO 2220/2300 VRB08KT 9000 DZ FM230100 00000KT 9999 SCT016

Weather observations and forecasts of more than 4000 airports (METAR and TAF reports).

The available stations are represented by yellow and red dots on the map.

Hover mouse over dot to see the name of the station.

Then click to see weather observations and forecasts.

To change the map : click on the green buttons with a black cross to zoom in, on the green button with a dash to zoom out, or on the green arrows for adjacent maps.